createdAt,value
2023-05-22T00:00:03.390Z,11.33
2023-05-22T00:02:42.739Z,10.87
2023-05-22T00:05:14.693Z,11.70
2023-05-22T00:07:43.316Z,11.60
2023-05-22T00:10:13.993Z,11.60
2023-05-22T00:12:42.035Z,10.47
2023-05-22T00:15:11.662Z,11.77
2023-05-22T00:17:39.823Z,11.80
2023-05-22T00:20:11.129Z,11.83
2023-05-22T00:22:40.930Z,10.90
2023-05-22T00:25:10.377Z,12.50
2023-05-22T00:27:38.438Z,12.40
2023-05-22T00:30:08.284Z,11.53
2023-05-22T00:32:36.440Z,11.50
2023-05-22T00:35:04.776Z,12.17
2023-05-22T00:37:33.498Z,12.03
2023-05-22T00:40:04.142Z,11.30
2023-05-22T00:42:32.224Z,11.33
2023-05-22T00:45:00.186Z,12.20
2023-05-22T00:47:28.261Z,11.57
2023-05-22T00:49:56.810Z,12.53
2023-05-22T00:52:25.324Z,11.57
2023-05-22T00:54:55.536Z,12.03
2023-05-22T00:57:24.926Z,11.40
2023-05-22T00:59:53.415Z,11.70
2023-05-22T01:02:21.859Z,12.23
2023-05-22T01:04:50.286Z,12.00
2023-05-22T01:07:18.670Z,11.93
2023-05-22T01:09:46.916Z,12.70
2023-05-22T01:12:31.460Z,13.33
2023-05-22T01:15:11.149Z,12.97
2023-05-22T01:17:53.018Z,11.87
2023-05-22T01:20:28.851Z,12.30
2023-05-22T01:23:45.398Z,12.30
2023-05-22T01:26:29.780Z,12.67
2023-05-22T01:29:29.150Z,12.73
2023-05-22T01:32:00.139Z,12.13
2023-05-22T01:34:29.356Z,12.10
2023-05-22T01:36:58.290Z,12.57
2023-05-22T01:39:28.808Z,11.73
2023-05-22T01:41:56.967Z,12.63
2023-05-22T01:44:25.202Z,12.73
2023-05-22T01:46:53.399Z,13.07
2023-05-22T01:49:22.827Z,12.90
2023-05-22T01:51:53.922Z,12.90
2023-05-22T01:54:30.227Z,12.73
2023-05-22T01:57:05.573Z,12.20
2023-05-22T01:59:37.910Z,12.33
2023-05-22T02:02:09.021Z,12.60
2023-05-22T02:04:43.337Z,12.53
2023-05-22T02:07:14.752Z,12.40
2023-05-22T02:09:45.643Z,13.63
2023-05-22T02:12:14.485Z,13.40
2023-05-22T02:14:43.396Z,12.80
2023-05-22T02:17:11.454Z,12.30
2023-05-22T02:19:40.867Z,13.20
2023-05-22T02:22:09.946Z,12.67
2023-05-22T02:24:38.412Z,13.90
2023-05-22T02:27:06.828Z,13.43
2023-05-22T02:29:34.725Z,12.63
2023-05-22T02:32:03.912Z,12.90
2023-05-22T02:34:32.675Z,13.33
2023-05-22T02:37:03.716Z,13.20
2023-05-22T02:39:32.237Z,14.23
2023-05-22T02:42:00.823Z,13.00
2023-05-22T02:44:29.138Z,13.03
2023-05-22T02:46:57.348Z,13.33
2023-05-22T02:49:25.318Z,13.53
2023-05-22T02:51:54.291Z,13.40
2023-05-22T02:54:23.590Z,13.10
2023-05-22T02:56:51.492Z,13.73
2023-05-22T02:59:19.400Z,13.83
2023-05-22T03:01:48.469Z,13.20
2023-05-22T03:04:16.738Z,12.97
2023-05-22T03:06:46.289Z,13.17
2023-05-22T03:09:14.325Z,13.00
2023-05-22T03:11:43.653Z,13.20
2023-05-22T03:14:11.563Z,13.20
2023-05-22T03:16:39.700Z,13.37
2023-05-22T03:19:11.512Z,13.47
2023-05-22T03:21:40.549Z,12.97
2023-05-22T03:24:09.275Z,12.77
2023-05-22T03:26:37.298Z,13.20
2023-05-22T03:29:10.425Z,13.13
2023-05-22T03:31:41.515Z,13.83
2023-05-22T03:34:12.750Z,13.10
2023-05-22T03:36:42.846Z,13.47
2023-05-22T03:39:10.802Z,13.43
2023-05-22T03:41:45.515Z,13.10
2023-05-22T03:44:15.784Z,13.00
2023-05-22T03:46:56.642Z,12.53
2023-05-22T03:49:24.660Z,13.10
2023-05-22T03:51:52.562Z,12.80
2023-05-22T03:54:20.538Z,13.23
2023-05-22T03:56:48.489Z,13.03
2023-05-22T03:59:17.979Z,12.83
2023-05-22T04:01:49.142Z,13.80
2023-05-22T04:04:19.174Z,13.63
2023-05-22T04:06:47.291Z,13.70
2023-05-22T04:09:16.787Z,13.83
2023-05-22T04:11:46.328Z,13.50
2023-05-22T04:14:14.294Z,12.60
2023-05-22T04:16:43.564Z,12.33
2023-05-22T04:19:14.000Z,12.80
2023-05-22T04:21:44.004Z,12.20
2023-05-22T04:24:12.070Z,12.80
2023-05-22T04:26:42.369Z,13.30
2023-05-22T04:29:14.211Z,12.77
2023-05-22T04:31:44.383Z,13.03
2023-05-22T04:34:13.786Z,13.73
2023-05-22T04:36:41.849Z,13.10
2023-05-22T04:39:09.837Z,11.33
2023-05-22T04:41:39.316Z,13.03
2023-05-22T04:44:07.329Z,12.43
2023-05-22T04:46:36.004Z,12.87
2023-05-22T04:49:05.522Z,12.43
2023-05-22T04:51:34.966Z,13.23
2023-05-22T04:54:02.930Z,13.73
2023-05-22T04:56:36.917Z,12.13
2023-05-22T04:59:09.054Z,12.37
2023-05-22T05:01:38.895Z,13.00
2023-05-22T05:04:08.195Z,12.37
2023-05-22T05:06:37.713Z,12.50
2023-05-22T05:09:06.139Z,12.70
2023-05-22T05:11:34.066Z,12.43
2023-05-22T05:14:02.119Z,12.70
2023-05-22T05:16:30.563Z,12.87
2023-05-22T05:18:58.566Z,12.43
2023-05-22T05:21:28.420Z,12.00
2023-05-22T05:23:59.524Z,12.20
2023-05-22T05:26:27.983Z,12.03
2023-05-22T05:28:56.671Z,13.83
2023-05-22T05:31:27.229Z,12.83
2023-05-22T05:34:15.492Z,13.10
2023-05-22T05:36:53.584Z,12.73
2023-05-22T05:39:23.357Z,12.60
2023-05-22T05:41:52.394Z,12.47
2023-05-22T05:44:20.376Z,11.97
2023-05-22T05:46:48.725Z,12.37
2023-05-22T05:49:20.745Z,13.30
2023-05-22T05:51:49.156Z,12.77
2023-05-22T05:54:19.655Z,13.10
2023-05-22T05:56:49.291Z,13.40
2023-05-22T05:59:17.677Z,13.03
2023-05-22T06:01:54.517Z,13.73
2023-05-22T06:04:28.099Z,13.40
2023-05-22T06:06:56.246Z,13.67
2023-05-22T06:09:48.435Z,14.17
2023-05-22T06:12:37.330Z,14.00
2023-05-22T06:15:06.152Z,13.60
2023-05-22T06:17:34.744Z,13.80
2023-05-22T06:20:02.909Z,13.53
2023-05-22T06:22:31.648Z,13.43
2023-05-22T06:25:01.711Z,13.13
2023-05-22T06:27:33.656Z,14.73
2023-05-22T06:30:04.646Z,13.40
2023-05-22T06:32:37.845Z,15.23
2023-05-22T06:35:08.175Z,14.63
2023-05-22T06:37:37.729Z,14.10
2023-05-22T06:40:10.116Z,13.50
2023-05-22T06:42:46.562Z,13.80
2023-05-22T06:45:32.771Z,14.83
2023-05-22T06:48:20.355Z,13.90
2023-05-22T06:51:06.635Z,14.37
2023-05-22T06:53:34.736Z,14.00
2023-05-22T06:56:05.142Z,14.10
2023-05-22T06:58:50.055Z,14.20
2023-05-22T07:01:19.672Z,14.03
2023-05-22T07:04:01.387Z,13.70
2023-05-22T07:06:48.501Z,13.70
2023-05-22T07:09:17.601Z,13.93
2023-05-22T07:11:46.927Z,13.23
2023-05-22T07:14:18.074Z,14.17
2023-05-22T07:16:47.024Z,13.67
2023-05-22T07:19:20.157Z,13.83
2023-05-22T07:21:49.108Z,13.23
2023-05-22T07:24:19.988Z,13.93
2023-05-22T07:26:49.681Z,12.83
2023-05-22T07:29:18.547Z,12.73
2023-05-22T07:31:49.750Z,12.80
2023-05-22T07:34:17.819Z,12.17
2023-05-22T07:36:46.718Z,12.87
2023-05-22T07:39:15.319Z,11.43
2023-05-22T07:41:51.066Z,11.80
2023-05-22T07:44:20.968Z,10.87
2023-05-22T07:46:48.997Z,9.37
2023-05-22T07:49:23.426Z,10.03
2023-05-22T07:51:52.215Z,9.50
2023-05-22T07:54:22.232Z,10.23
2023-05-22T07:56:56.121Z,10.13
2023-05-22T07:59:25.614Z,10.10
2023-05-22T08:01:58.408Z,10.43
2023-05-22T08:04:26.773Z,10.03
2023-05-22T08:06:54.789Z,10.00
2023-05-22T08:09:22.933Z,10.77
2023-05-22T08:11:50.946Z,10.37
2023-05-22T08:14:23.071Z,9.73
2023-05-22T08:16:51.198Z,10.03
2023-05-22T08:19:19.260Z,10.30
2023-05-22T08:21:47.474Z,10.00
2023-05-22T08:24:15.533Z,10.57
2023-05-22T08:26:43.606Z,10.20
2023-05-22T08:29:12.070Z,10.37
2023-05-22T08:31:41.646Z,10.17
2023-05-22T08:34:10.557Z,10.50
2023-05-22T08:36:38.880Z,10.20
2023-05-22T08:39:07.433Z,11.30
2023-05-22T08:41:36.039Z,10.13
2023-05-22T08:44:03.965Z,10.87
2023-05-22T08:46:38.112Z,10.07
2023-05-22T08:49:08.385Z,9.60
2023-05-22T08:51:39.980Z,9.40
2023-05-22T08:54:08.636Z,10.27
2023-05-22T08:56:39.686Z,10.10
2023-05-22T08:59:13.973Z,10.77
2023-05-22T09:01:42.080Z,10.23
2023-05-22T09:04:11.628Z,10.93
2023-05-22T09:06:39.680Z,10.13
2023-05-22T09:09:07.818Z,9.33
2023-05-22T09:11:35.809Z,10.23
2023-05-22T09:14:10.915Z,9.13
2023-05-22T09:16:46.619Z,9.80
2023-05-22T09:19:16.300Z,9.90
2023-05-22T09:21:45.217Z,10.18
2023-05-22T09:24:13.511Z,10.07
2023-05-22T09:26:41.609Z,9.98
2023-05-22T09:29:09.875Z,10.63
2023-05-22T09:31:43.858Z,10.00
2023-05-22T09:34:15.442Z,9.38
2023-05-22T09:36:43.579Z,9.63
2023-05-22T09:39:11.552Z,9.93
2023-05-22T09:41:40.890Z,10.30
2023-05-22T09:44:13.817Z,10.33
2023-05-22T09:46:42.822Z,10.17
2023-05-22T09:49:13.335Z,11.02
2023-05-22T09:51:47.603Z,9.98
2023-05-22T09:54:17.599Z,9.67
2023-05-22T09:56:48.857Z,10.13
2023-05-22T09:59:21.760Z,9.60
2023-05-22T10:01:51.405Z,11.05
2023-05-22T10:04:20.112Z,10.07
2023-05-22T10:06:53.721Z,11.27
2023-05-22T10:09:24.803Z,9.88
2023-05-22T10:11:56.160Z,10.02
2023-05-22T10:14:25.608Z,9.63
2023-05-22T10:16:54.707Z,10.18
2023-05-22T10:19:27.152Z,9.13
2023-05-22T10:21:59.047Z,9.93
2023-05-22T10:24:27.651Z,9.75
2023-05-22T10:26:55.905Z,9.85
2023-05-22T10:29:30.877Z,9.50
2023-05-22T10:32:06.450Z,9.60
2023-05-22T10:34:52.684Z,9.20
2023-05-22T10:37:40.270Z,9.15
2023-05-22T10:40:11.968Z,8.88
2023-05-22T10:42:40.066Z,8.63
2023-05-22T10:45:09.805Z,9.18
2023-05-22T10:47:38.182Z,9.18
2023-05-22T10:50:09.638Z,9.32
2023-05-22T10:52:39.984Z,9.30
2023-05-22T10:55:09.245Z,9.23
2023-05-22T10:57:39.352Z,9.50
2023-05-22T11:00:09.829Z,9.30
2023-05-22T11:02:46.368Z,9.35
2023-05-22T11:05:35.460Z,10.10
2023-05-22T11:08:38.624Z,9.25
2023-05-22T11:11:14.431Z,8.48
2023-05-22T11:13:43.648Z,8.27
2023-05-22T11:16:12.279Z,8.55
2023-05-22T11:18:40.429Z,8.68
2023-05-22T11:21:13.459Z,8.25
2023-05-22T11:23:43.190Z,7.57
2023-05-22T11:26:22.438Z,7.90
2023-05-22T11:28:53.331Z,7.93
2023-05-22T11:31:23.978Z,7.47
2023-05-22T11:33:52.145Z,6.95
2023-05-22T11:36:20.169Z,6.82
2023-05-22T11:38:49.620Z,7.80
2023-05-22T11:41:17.618Z,7.68
2023-05-22T11:43:45.812Z,7.53
2023-05-22T11:46:14.932Z,7.75
2023-05-22T11:48:43.340Z,7.90
2023-05-22T11:51:11.314Z,8.25
2023-05-22T11:53:39.426Z,8.20
2023-05-22T11:56:08.872Z,8.15
2023-05-22T11:58:36.817Z,7.72
2023-05-22T12:01:05.555Z,8.00
2023-05-22T12:03:34.009Z,8.32
2023-05-22T12:06:02.971Z,7.65
2023-05-22T12:08:31.060Z,8.32
2023-05-22T12:10:59.144Z,7.82
2023-05-22T12:13:30.533Z,8.25
2023-05-22T12:16:01.296Z,7.70
2023-05-22T12:18:36.261Z,7.50
2023-05-22T12:21:07.387Z,8.27
2023-05-22T12:23:35.442Z,7.97
2023-05-22T12:26:05.388Z,7.45
2023-05-22T12:28:34.802Z,6.93
2023-05-22T12:31:02.702Z,7.97
2023-05-22T12:33:31.351Z,7.53
2023-05-22T12:35:59.936Z,7.22
2023-05-22T12:38:29.026Z,7.40
2023-05-22T12:40:57.430Z,7.10
2023-05-22T12:43:27.124Z,6.97
2023-05-22T12:45:56.506Z,6.57
2023-05-22T12:48:24.446Z,6.72
2023-05-22T12:50:52.470Z,6.80
2023-05-22T12:53:20.746Z,6.47
2023-05-22T12:55:48.650Z,6.70
2023-05-22T12:58:20.072Z,6.55
2023-05-22T13:00:48.143Z,7.43
2023-05-22T13:03:17.483Z,7.40
2023-05-22T13:05:45.668Z,6.57
2023-05-22T13:08:13.680Z,6.65
2023-05-22T13:10:41.575Z,6.47
2023-05-22T13:13:09.710Z,7.15
2023-05-22T13:15:37.734Z,6.38
2023-05-22T13:18:05.847Z,6.90
2023-05-22T13:20:37.253Z,6.65
2023-05-22T13:23:05.203Z,6.28
2023-05-22T13:25:33.184Z,6.05
2023-05-22T13:28:02.211Z,5.60
2023-05-22T13:30:30.171Z,6.68
2023-05-22T13:32:58.126Z,6.47
2023-05-22T13:35:26.195Z,5.97
2023-05-22T13:37:55.451Z,5.93
2023-05-22T13:40:23.441Z,5.88
2023-05-22T13:42:53.092Z,5.57
2023-05-22T13:45:21.310Z,6.03
2023-05-22T13:47:49.653Z,5.57
2023-05-22T13:50:17.826Z,5.80
2023-05-22T13:52:45.761Z,5.00
2023-05-22T13:55:15.152Z,5.05
2023-05-22T13:57:43.106Z,5.20
2023-05-22T14:00:12.144Z,5.90
2023-05-22T14:02:40.103Z,5.63
2023-05-22T14:05:08.695Z,5.22
2023-05-22T14:07:36.837Z,6.20
2023-05-22T14:10:05.182Z,6.13
2023-05-22T14:12:34.454Z,6.00
2023-05-22T14:15:03.123Z,5.85
2023-05-22T14:17:31.211Z,5.85
2023-05-22T14:20:00.192Z,5.95
2023-05-22T14:22:28.396Z,5.82
2023-05-22T14:24:56.921Z,5.78
2023-05-22T14:27:25.042Z,6.07
2023-05-22T14:29:54.360Z,6.05
2023-05-22T14:32:22.547Z,5.63
2023-05-22T14:34:51.204Z,5.50
2023-05-22T14:37:19.665Z,5.70
2023-05-22T14:39:47.669Z,5.82
2023-05-22T14:42:15.665Z,5.30
2023-05-22T14:44:43.605Z,5.95
2023-05-22T14:47:12.990Z,5.63
2023-05-22T14:49:40.923Z,6.03
2023-05-22T14:52:08.854Z,6.45
2023-05-22T14:54:36.854Z,6.40
2023-05-22T14:57:04.993Z,6.60
2023-05-22T14:59:33.801Z,6.78
2023-05-22T15:02:01.823Z,6.50
2023-05-22T15:04:31.209Z,6.82
2023-05-22T15:06:59.155Z,6.93
2023-05-22T15:09:27.318Z,6.25
2023-05-22T15:11:55.720Z,6.43
2023-05-22T15:14:23.579Z,6.80
2023-05-22T15:16:51.519Z,6.68
2023-05-22T15:19:19.492Z,6.72
2023-05-22T15:21:48.827Z,6.50
2023-05-22T15:24:16.959Z,6.57
2023-05-22T15:26:44.962Z,6.70
2023-05-22T15:29:13.183Z,6.20
2023-05-22T15:31:41.212Z,6.30
2023-05-22T15:34:09.135Z,5.43
2023-05-22T15:36:37.492Z,5.18
2023-05-22T15:39:06.932Z,5.20
2023-05-22T15:41:34.903Z,5.18
2023-05-22T15:44:02.815Z,5.20
2023-05-22T15:46:30.957Z,5.20
2023-05-22T15:48:58.944Z,4.88
2023-05-22T15:51:26.813Z,5.15
2023-05-22T15:53:54.717Z,4.70
2023-05-22T15:56:24.056Z,5.13
2023-05-22T15:58:51.975Z,5.00
2023-05-22T16:01:19.925Z,5.20
2023-05-22T16:03:48.164Z,4.95
2023-05-22T16:06:16.163Z,5.05
2023-05-22T16:08:44.031Z,5.38
2023-05-22T16:11:11.904Z,4.97
2023-05-22T16:13:41.611Z,5.55
2023-05-22T16:16:09.763Z,5.25
2023-05-22T16:18:38.084Z,5.40
2023-05-22T16:21:06.497Z,5.00
2023-05-22T16:23:34.416Z,5.32
2023-05-22T16:26:02.420Z,5.05
2023-05-22T16:28:30.384Z,5.38
2023-05-22T16:30:59.745Z,4.93
2023-05-22T16:33:27.767Z,5.30
2023-05-22T16:35:55.674Z,5.63
2023-05-22T16:38:23.612Z,5.50
2023-05-22T16:40:52.864Z,5.38
2023-05-22T16:43:20.810Z,5.47
2023-05-22T16:45:51.143Z,5.30
2023-05-22T16:48:20.708Z,5.43
2023-05-22T16:50:48.807Z,5.32
2023-05-22T16:53:17.525Z,5.65
2023-05-22T16:55:45.770Z,5.68
2023-05-22T16:58:13.950Z,5.47
2023-05-22T17:00:42.489Z,5.20
2023-05-22T17:03:11.844Z,5.82
2023-05-22T17:05:41.702Z,5.38
2023-05-22T17:08:10.024Z,5.43
2023-05-22T17:10:37.950Z,5.63
2023-05-22T17:13:06.088Z,5.53
2023-05-22T17:15:34.108Z,5.40
2023-05-22T17:18:02.144Z,6.13
2023-05-22T17:20:32.890Z,5.50
2023-05-22T17:23:02.250Z,5.80
2023-05-22T17:25:30.326Z,6.10
2023-05-22T17:27:58.266Z,5.72
2023-05-22T17:30:26.246Z,5.45
2023-05-22T17:32:56.814Z,5.85
2023-05-22T17:35:25.067Z,5.57
2023-05-22T17:37:53.120Z,6.18
2023-05-22T17:40:29.574Z,5.93
2023-05-22T17:43:04.517Z,6.00
2023-05-22T17:45:32.461Z,6.32
2023-05-22T17:48:00.435Z,6.93
2023-05-22T17:50:28.386Z,7.55
2023-05-22T17:52:56.320Z,7.30
2023-05-22T17:55:25.727Z,7.30
2023-05-22T17:57:54.010Z,7.70
2023-05-22T18:00:22.060Z,7.20
2023-05-22T18:02:50.098Z,7.23
2023-05-22T18:05:18.084Z,7.17
2023-05-22T18:07:45.990Z,6.83
2023-05-22T18:10:13.936Z,6.90
2023-05-22T18:12:43.281Z,6.80
2023-05-22T18:15:12.493Z,6.60
2023-05-22T18:17:41.194Z,7.00
2023-05-22T18:20:11.875Z,6.97
2023-05-22T18:22:40.878Z,7.40
2023-05-22T18:25:10.241Z,7.20
2023-05-22T18:27:38.285Z,7.30
2023-05-22T18:30:09.076Z,8.13
2023-05-22T18:32:38.456Z,7.50
2023-05-22T18:35:07.552Z,7.93
2023-05-22T18:37:35.494Z,7.83
2023-05-22T18:40:06.442Z,7.27
2023-05-22T18:42:34.351Z,7.73
2023-05-22T18:45:02.266Z,7.70
2023-05-22T18:47:32.143Z,7.87
2023-05-22T18:50:00.275Z,8.43
2023-05-22T18:52:28.185Z,7.47
2023-05-22T18:54:56.109Z,8.10
2023-05-22T18:57:24.182Z,7.83
2023-05-22T18:59:52.204Z,8.70
2023-05-22T19:02:21.856Z,8.00
2023-05-22T19:04:51.569Z,7.70
2023-05-22T19:07:21.076Z,7.83
2023-05-22T19:09:49.556Z,8.10
2023-05-22T19:12:17.593Z,7.97
2023-05-22T19:14:48.227Z,8.63
2023-05-22T19:17:16.377Z,7.57
2023-05-22T19:19:44.555Z,8.37
2023-05-22T19:22:14.515Z,7.63
2023-05-22T19:24:43.282Z,7.90
2023-05-22T19:27:11.260Z,8.23
2023-05-22T19:29:39.394Z,7.73
2023-05-22T19:32:07.851Z,8.57
2023-05-22T19:34:36.013Z,8.30
2023-05-22T19:37:04.067Z,8.17
2023-05-22T19:39:34.009Z,8.27
2023-05-22T19:42:02.502Z,8.77
2023-05-22T19:44:30.484Z,8.63
2023-05-22T19:46:58.474Z,8.40
2023-05-22T19:49:27.167Z,8.73
2023-05-22T19:51:56.219Z,7.83
2023-05-22T19:54:24.281Z,8.60
2023-05-22T19:56:53.625Z,8.40
2023-05-22T19:59:21.738Z,7.87
2023-05-22T20:01:52.819Z,8.53
2023-05-22T20:04:21.896Z,8.27
2023-05-22T20:06:50.765Z,8.63
2023-05-22T20:09:18.788Z,8.07
2023-05-22T20:11:46.951Z,8.20
2023-05-22T20:14:16.312Z,8.93
2023-05-22T20:16:44.296Z,8.57
2023-05-22T20:19:14.765Z,8.87
2023-05-22T20:21:42.785Z,8.73
2023-05-22T20:24:17.559Z,9.03
2023-05-22T20:26:45.954Z,9.10
2023-05-22T20:29:14.365Z,9.30
2023-05-22T20:31:43.720Z,9.10
2023-05-22T20:34:11.732Z,9.47
2023-05-22T20:36:40.856Z,9.50
2023-05-22T20:39:10.683Z,8.63
2023-05-22T20:41:39.370Z,9.47
2023-05-22T20:44:07.761Z,8.80
2023-05-22T20:46:35.764Z,9.37
2023-05-22T20:49:06.154Z,9.33
2023-05-22T20:51:34.285Z,9.57
2023-05-22T20:54:02.301Z,8.97
2023-05-22T20:56:30.238Z,8.87
2023-05-22T20:58:58.508Z,9.57
2023-05-22T21:01:26.690Z,9.17
2023-05-22T21:03:56.695Z,8.73
2023-05-22T21:06:26.085Z,9.00
2023-05-22T21:08:59.164Z,9.67
2023-05-22T21:11:27.352Z,9.47
2023-05-22T21:13:55.328Z,9.37
2023-05-22T21:16:23.573Z,9.10
2023-05-22T21:18:51.583Z,9.40
2023-05-22T21:21:21.701Z,8.33
2023-05-22T21:23:51.404Z,8.63
2023-05-22T21:26:22.346Z,9.00
2023-05-22T21:28:50.675Z,8.83
2023-05-22T21:31:18.632Z,8.93
2023-05-22T21:33:46.757Z,8.90
2023-05-22T21:36:14.791Z,8.37
2023-05-22T21:38:42.801Z,9.30
2023-05-22T21:41:12.568Z,9.53
2023-05-22T21:43:40.619Z,8.90
2023-05-22T21:46:08.754Z,8.83
2023-05-22T21:48:36.736Z,9.00
2023-05-22T21:51:04.812Z,8.97
2023-05-22T21:53:32.792Z,8.63
2023-05-22T21:56:00.987Z,8.53
2023-05-22T21:58:30.296Z,8.63
2023-05-22T22:00:58.335Z,8.67
2023-05-22T22:03:26.671Z,8.30
2023-05-22T22:05:54.653Z,9.13
2023-05-22T22:08:22.541Z,8.17
2023-05-22T22:10:50.823Z,8.53
2023-05-22T22:13:18.790Z,8.43
2023-05-22T22:15:48.121Z,7.23
2023-05-22T22:18:16.651Z,8.23
2023-05-22T22:20:45.610Z,7.93
2023-05-22T22:23:13.888Z,7.50
2023-05-22T22:25:41.876Z,7.97
2023-05-22T22:28:09.872Z,7.80
2023-05-22T22:30:37.847Z,7.90
2023-05-22T22:33:07.671Z,7.30
2023-05-22T22:35:35.634Z,7.13
2023-05-22T22:38:03.585Z,7.03
2023-05-22T22:40:31.491Z,6.63
2023-05-22T22:42:59.488Z,7.07
2023-05-22T22:45:27.410Z,7.37
2023-05-22T22:47:56.448Z,7.67
2023-05-22T22:50:25.929Z,8.13
2023-05-22T22:52:53.894Z,8.63
2023-05-22T22:55:22.111Z,9.70
2023-05-22T22:57:51.479Z,9.97
2023-05-22T23:00:20.129Z,10.40
2023-05-22T23:02:48.295Z,10.67
2023-05-22T23:05:19.818Z,11.07
2023-05-22T23:07:50.100Z,12.00
2023-05-22T23:10:18.128Z,12.70
2023-05-22T23:12:48.421Z,13.30
2023-05-22T23:15:16.498Z,13.00
2023-05-22T23:17:44.649Z,13.57
2023-05-22T23:20:12.743Z,13.87
2023-05-22T23:22:40.715Z,14.70
2023-05-22T23:25:10.928Z,14.90
2023-05-22T23:27:39.319Z,15.70
2023-05-22T23:30:09.495Z,15.90
2023-05-22T23:32:37.465Z,16.97
2023-05-22T23:35:06.181Z,16.87
2023-05-22T23:37:34.110Z,18.20
2023-05-22T23:40:02.147Z,18.07
2023-05-22T23:42:31.441Z,18.77
2023-05-22T23:44:59.374Z,19.47
2023-05-22T23:47:27.411Z,21.13
2023-05-22T23:49:56.646Z,20.37
2023-05-22T23:52:24.686Z,21.97
2023-05-22T23:54:52.578Z,22.50
2023-05-22T23:57:20.694Z,22.70
2023-05-22T23:59:50.006Z,23.20
